createdAt,value
2018-09-01T00:00:13.614Z,97306
2018-09-01T00:01:29.623Z,97301
2018-09-01T00:02:45.554Z,97305
2018-09-01T00:04:01.455Z,97304
2018-09-01T00:05:17.401Z,97304
2018-09-01T00:06:33.374Z,97305
2018-09-01T00:07:49.512Z,97306
2018-09-01T00:09:05.449Z,97302
2018-09-01T00:10:21.432Z,97305
2018-09-01T00:11:37.509Z,97301
2018-09-01T00:12:53.409Z,97295
2018-09-01T00:14:09.406Z,97293
2018-09-01T00:15:25.314Z,97295
2018-09-01T00:16:41.231Z,97293
2018-09-01T00:17:57.138Z,97294
2018-09-01T00:19:13.085Z,97290
2018-09-01T00:20:29.107Z,97293
2018-09-01T00:21:45.144Z,97296
2018-09-01T00:23:01.059Z,97291
2018-09-01T00:24:17.082Z,97296
2018-09-01T00:25:32.989Z,97295
2018-09-01T00:26:48.883Z,97293
2018-09-01T00:28:04.891Z,97299
2018-09-01T00:29:21.003Z,97297
2018-09-01T00:30:36.986Z,97301
2018-09-01T00:31:52.854Z,97301
2018-09-01T00:33:08.831Z,97298
2018-09-01T00:34:24.803Z,97302
2018-09-01T00:35:40.738Z,97297
2018-09-01T00:36:56.668Z,97296
2018-09-01T00:38:12.635Z,97299
2018-09-01T00:39:28.573Z,97298
2018-09-01T00:40:44.457Z,97300
2018-09-01T00:42:00.462Z,97300
2018-09-01T00:43:16.440Z,97299
2018-09-01T00:44:32.348Z,97299
2018-09-01T00:45:48.341Z,97298
2018-09-01T00:47:04.390Z,97301
2018-09-01T00:48:20.324Z,97298
2018-09-01T00:49:36.257Z,97300
2018-09-01T00:50:52.376Z,97296
2018-09-01T00:52:08.361Z,97298
2018-09-01T00:53:24.346Z,97298
2018-09-01T00:54:40.247Z,97297
2018-09-01T00:55:56.207Z,97298
2018-09-01T00:57:12.157Z,97296
2018-09-01T00:58:28.095Z,97295
2018-09-01T00:59:44.072Z,97297
2018-09-01T01:01:00.012Z,97297
2018-09-01T01:02:16.250Z,97299
2018-09-01T01:03:32.205Z,97300
2018-09-01T01:04:48.097Z,97296
2018-09-01T01:06:04.979Z,97298
2018-09-01T01:07:20.932Z,97305
2018-09-01T01:08:36.868Z,97303
2018-09-01T01:09:52.908Z,97307
2018-09-01T01:11:08.883Z,97309
2018-09-01T01:12:24.823Z,97311
2018-09-01T01:13:40.743Z,97312
2018-09-01T01:14:56.655Z,97321
2018-09-01T01:16:12.562Z,97313
2018-09-01T01:17:28.469Z,97315
2018-09-01T01:18:44.493Z,97321
2018-09-01T01:20:00.479Z,97323
2018-09-01T01:21:16.525Z,97324
2018-09-01T01:22:32.475Z,97321
2018-09-01T01:23:48.459Z,97321
2018-09-01T01:25:04.448Z,97320
2018-09-01T01:26:20.395Z,97317
2018-09-01T01:27:36.271Z,97314
2018-09-01T01:28:52.307Z,97319
2018-09-01T01:30:08.249Z,97316
2018-09-01T01:31:24.167Z,97317
2018-09-01T01:35:36.538Z,97320
2018-09-01T01:36:52.460Z,97318
2018-09-01T01:38:08.379Z,97315
2018-09-01T01:39:24.308Z,97318
2018-09-01T01:40:40.194Z,97320
2018-09-01T01:41:56.205Z,97321
2018-09-01T01:43:12.160Z,97320
2018-09-01T01:44:28.098Z,97316
2018-09-01T01:45:44.108Z,97322
2018-09-01T01:47:00.095Z,97320
2018-09-01T01:48:16.002Z,97314
2018-09-01T01:49:32.056Z,97312
2018-09-01T01:50:47.964Z,97313
2018-09-01T01:52:03.874Z,97313
2018-09-01T01:53:19.779Z,97314
2018-09-01T01:54:35.794Z,97311
2018-09-01T01:55:51.750Z,97321
2018-09-01T01:57:07.638Z,97317
2018-09-01T01:58:23.684Z,97318
2018-09-01T01:59:39.582Z,97315
2018-09-01T02:00:55.504Z,97318
2018-09-01T02:02:11.531Z,97320
2018-09-01T02:03:27.444Z,97322
2018-09-01T02:04:43.355Z,97319
2018-09-01T02:05:59.370Z,97321
2018-09-01T02:07:15.324Z,97319
2018-09-01T02:08:31.285Z,97318
2018-09-01T02:09:47.325Z,97319
2018-09-01T02:11:03.232Z,97316
2018-09-01T02:12:19.224Z,97314
2018-09-01T02:13:35.265Z,97311
2018-09-01T02:16:32.731Z,97317
2018-09-01T02:17:48.736Z,97320
2018-09-01T02:19:04.702Z,97316
2018-09-01T02:20:20.631Z,97316
2018-09-01T02:21:36.564Z,97318
2018-09-01T02:22:52.608Z,97318
2018-09-01T02:24:08.556Z,97317
2018-09-01T02:25:24.533Z,97321
2018-09-01T02:26:40.525Z,97319
2018-09-01T02:27:56.500Z,97320
2018-09-01T02:29:12.454Z,97320
2018-09-01T02:30:28.366Z,97319
2018-09-01T02:31:44.310Z,97320
2018-09-01T02:33:00.314Z,97319
2018-09-01T02:34:16.334Z,97323
2018-09-01T02:35:32.291Z,97320
2018-09-01T02:36:48.328Z,97323
2018-09-01T02:38:04.372Z,97322
2018-09-01T02:39:20.291Z,97324
2018-09-01T02:40:36.199Z,97324
2018-09-01T02:41:52.181Z,97325
2018-09-01T02:43:08.164Z,97326
2018-09-01T02:44:24.063Z,97321
2018-09-01T02:45:40.093Z,97320
2018-09-01T02:46:56.066Z,97321
2018-09-01T02:48:12.023Z,97324
2018-09-01T02:49:27.944Z,97325
2018-09-01T02:50:43.959Z,97327
2018-09-01T02:51:59.976Z,97325
2018-09-01T02:53:15.904Z,97327
2018-09-01T02:54:31.843Z,97328
2018-09-01T02:55:47.870Z,97330
2018-09-01T02:57:03.943Z,97330
2018-09-01T02:58:19.866Z,97329
2018-09-01T02:59:35.866Z,97324
2018-09-01T03:00:51.868Z,97327
2018-09-01T03:02:07.768Z,97326
2018-09-01T03:03:23.651Z,97327
2018-09-01T03:04:39.676Z,97326
2018-09-01T03:05:55.717Z,97327
2018-09-01T03:07:11.697Z,97326
2018-09-01T03:08:27.581Z,97323
2018-09-01T03:09:43.634Z,97327
2018-09-01T03:10:59.535Z,97328
2018-09-01T03:12:15.466Z,97325
2018-09-01T03:13:31.487Z,97326
2018-09-01T03:14:47.435Z,97324
2018-09-01T03:16:03.476Z,97320
2018-09-01T03:17:19.421Z,97324
2018-09-01T03:18:35.427Z,97326
2018-09-01T03:19:51.411Z,97324
2018-09-01T03:24:04.020Z,97324
2018-09-01T03:25:19.934Z,97324
2018-09-01T03:26:35.893Z,97325
2018-09-01T03:27:51.782Z,97321
2018-09-01T03:29:07.764Z,97327
2018-09-01T03:30:23.772Z,97323
2018-09-01T03:31:39.677Z,97321
2018-09-01T03:32:55.679Z,97322
2018-09-01T03:34:11.530Z,97323
2018-09-01T03:35:27.418Z,97318
2018-09-01T03:36:43.431Z,97319
2018-09-01T03:37:59.465Z,97321
2018-09-01T03:39:15.573Z,97323
2018-09-01T03:40:31.568Z,97317
2018-09-01T03:41:47.472Z,97322
2018-09-01T03:43:04.376Z,97320
2018-09-01T03:44:20.538Z,97318
2018-09-01T03:45:36.518Z,97319
2018-09-01T03:46:52.398Z,97317
2018-09-01T03:48:08.314Z,97319
2018-09-01T03:49:24.238Z,97319
2018-09-01T03:50:40.145Z,97317
2018-09-01T03:51:56.159Z,97318
2018-09-01T03:53:12.086Z,97321
2018-09-01T03:54:27.980Z,97317
2018-09-01T03:55:43.986Z,97317
2018-09-01T03:57:00.039Z,97316
2018-09-01T03:58:16.049Z,97320
2018-09-01T03:59:31.996Z,97319
2018-09-01T04:00:47.988Z,97321
2018-09-01T04:02:03.876Z,97316
2018-09-01T04:03:19.778Z,97318
2018-09-01T04:04:35.780Z,97316
2018-09-01T04:05:51.857Z,97319
2018-09-01T04:07:08.098Z,97318
2018-09-01T04:08:24.055Z,97318
2018-09-01T04:09:39.995Z,97319
2018-09-01T04:10:56.006Z,97318
2018-09-01T04:12:11.935Z,97315
2018-09-01T04:13:27.781Z,97315
2018-09-01T04:14:43.734Z,97315
2018-09-01T04:15:59.948Z,97309
2018-09-01T04:17:16.130Z,97307
2018-09-01T04:18:32.196Z,97310
2018-09-01T04:19:48.100Z,97307
2018-09-01T04:21:04.010Z,97312
2018-09-01T04:22:19.924Z,97314
2018-09-01T04:23:35.841Z,97312
2018-09-01T04:26:32.451Z,97314
2018-09-01T04:27:48.502Z,97314
2018-09-01T04:29:04.537Z,97314
2018-09-01T04:30:20.434Z,97312
2018-09-01T04:31:36.351Z,97314
2018-09-01T04:32:52.264Z,97314
2018-09-01T04:34:08.143Z,97313
2018-09-01T04:35:24.027Z,97319
2018-09-01T04:36:40.006Z,97319
2018-09-01T04:37:56.062Z,97318
2018-09-01T04:39:12.059Z,97318
2018-09-01T04:40:27.966Z,97317
2018-09-01T04:41:44.119Z,97321
2018-09-01T04:43:00.165Z,97324
2018-09-01T04:44:16.105Z,97323
2018-09-01T04:45:31.995Z,97326
2018-09-01T04:46:48.043Z,97323
2018-09-01T04:48:03.993Z,97322
2018-09-01T04:49:19.914Z,97320
2018-09-01T04:50:35.826Z,97320
2018-09-01T04:53:32.284Z,97319
2018-09-01T04:54:48.322Z,97318
2018-09-01T04:56:04.342Z,97318
2018-09-01T04:57:20.267Z,97317
2018-09-01T04:58:36.184Z,97320
2018-09-01T04:59:52.083Z,97317
2018-09-01T05:01:08.193Z,97317
2018-09-01T05:02:23.877Z,97318
2018-09-01T05:03:40.079Z,97320
2018-09-01T05:04:56.203Z,97316
2018-09-01T05:06:12.241Z,97320
2018-09-01T05:07:28.147Z,97324
2018-09-01T05:08:44.048Z,97322
2018-09-01T05:10:00.075Z,97320
2018-09-01T05:11:16.294Z,97324
2018-09-01T05:12:32.344Z,97321
2018-09-01T05:13:48.272Z,97321
2018-09-01T05:15:04.598Z,97324
2018-09-01T05:16:20.816Z,97319
2018-09-01T05:17:36.887Z,97328
2018-09-01T05:18:52.828Z,97325
2018-09-01T05:20:08.823Z,97325
2018-09-01T05:21:24.883Z,97328
2018-09-01T05:22:40.781Z,97330
2018-09-01T05:23:56.744Z,97332
2018-09-01T05:25:12.701Z,97329
2018-09-01T05:26:28.749Z,97327
2018-09-01T05:27:44.681Z,97329
2018-09-01T05:29:00.729Z,97327
2018-09-01T05:30:16.754Z,97329
2018-09-01T05:31:32.810Z,97328
2018-09-01T05:32:48.839Z,97328
2018-09-01T05:34:04.783Z,97329
2018-09-01T05:35:20.801Z,97326
2018-09-01T05:36:37.063Z,97327
2018-09-01T05:37:53.303Z,97326
2018-09-01T05:39:09.302Z,97326
2018-09-01T05:40:25.305Z,97327
2018-09-01T05:41:41.271Z,97323
2018-09-01T05:42:57.239Z,97327
2018-09-01T05:44:13.235Z,97323
2018-09-01T05:45:29.223Z,97326
2018-09-01T05:46:45.167Z,97326
2018-09-01T05:48:01.132Z,97328
2018-09-01T05:49:17.146Z,97327
2018-09-01T05:50:33.148Z,97324
2018-09-01T05:51:49.218Z,97322
2018-09-01T05:53:05.206Z,97322
2018-09-01T05:54:21.295Z,97326
2018-09-01T05:55:37.219Z,97323
2018-09-01T05:56:53.211Z,97329
2018-09-01T05:58:09.114Z,97325
2018-09-01T05:59:25.098Z,97328
2018-09-01T06:00:41.150Z,97325
2018-09-01T06:01:57.063Z,97332
2018-09-01T06:03:13.048Z,97337
2018-09-01T06:04:29.027Z,97335
2018-09-01T06:05:45.190Z,97337
2018-09-01T06:07:01.264Z,97344
2018-09-01T06:08:17.311Z,97344
2018-09-01T06:09:33.413Z,97349
2018-09-01T06:10:49.398Z,97353
2018-09-01T06:12:05.378Z,97357
2018-09-01T06:13:21.352Z,97359
2018-09-01T06:14:37.444Z,97360
2018-09-01T06:15:53.394Z,97361
2018-09-01T06:17:09.310Z,97366
2018-09-01T06:18:25.242Z,97362
2018-09-01T06:19:41.287Z,97363
2018-09-01T06:20:57.257Z,97360
2018-09-01T06:22:13.211Z,97362
2018-09-01T06:23:29.170Z,97361
2018-09-01T06:24:45.235Z,97362
2018-09-01T06:27:41.875Z,97362
2018-09-01T06:28:57.804Z,97363
2018-09-01T06:30:13.901Z,97363
2018-09-01T06:31:29.885Z,97364
2018-09-01T06:32:45.914Z,97367
2018-09-01T06:34:01.835Z,97365
2018-09-01T06:35:17.782Z,97366
2018-09-01T06:36:33.796Z,97368
2018-09-01T06:37:49.808Z,97369
2018-09-01T06:39:05.764Z,97373
2018-09-01T06:40:21.788Z,97372
2018-09-01T06:41:37.942Z,97376
2018-09-01T06:42:54.305Z,97368
2018-09-01T06:44:10.237Z,97374
2018-09-01T06:45:26.140Z,97372
2018-09-01T06:46:42.065Z,97376
2018-09-01T06:47:58.169Z,97379
2018-09-01T06:49:14.140Z,97379
2018-09-01T06:50:30.154Z,97379
2018-09-01T06:51:46.065Z,97381
2018-09-01T06:53:02.088Z,97382
2018-09-01T06:55:58.677Z,97382
2018-09-01T06:57:14.762Z,97390
2018-09-01T06:58:30.768Z,97389
2018-09-01T06:59:46.924Z,97389
2018-09-01T07:01:03.021Z,97394
2018-09-01T07:02:18.967Z,97388
2018-09-01T07:03:34.896Z,97392
2018-09-01T07:04:50.923Z,97398
2018-09-01T07:06:07.048Z,97398
2018-09-01T07:07:23.042Z,97399
2018-09-01T07:08:39.020Z,97402
2018-09-01T07:09:55.025Z,97399
2018-09-01T07:11:11.132Z,97408
2018-09-01T07:12:27.294Z,97402
2018-09-01T07:13:43.260Z,97407
2018-09-01T07:14:59.230Z,97406
2018-09-01T07:16:15.317Z,97403
2018-09-01T07:17:31.358Z,97405
2018-09-01T07:18:47.435Z,97406
2018-09-01T07:20:03.390Z,97406
2018-09-01T07:22:59.857Z,97404
2018-09-01T07:24:15.821Z,97404
2018-09-01T07:25:31.794Z,97408
2018-09-01T07:26:47.761Z,97407
2018-09-01T07:28:03.884Z,97410
2018-09-01T07:29:19.904Z,97412
2018-09-01T07:30:36.077Z,97412
2018-09-01T07:31:51.995Z,97410
2018-09-01T07:33:07.992Z,97411
2018-09-01T07:34:24.561Z,97412
2018-09-01T07:35:40.589Z,97414
2018-09-01T07:36:56.769Z,97415
2018-09-01T07:38:12.891Z,97414
2018-09-01T07:39:29.010Z,97422
2018-09-01T07:40:45.091Z,97417
2018-09-01T07:42:01.861Z,97419
2018-09-01T07:43:18.463Z,97425
2018-09-01T07:44:34.478Z,97421
2018-09-01T07:45:50.488Z,97425
2018-09-01T07:47:06.610Z,97426
2018-09-01T07:53:00.091Z,97434
2018-09-01T07:54:16.378Z,97428
2018-09-01T07:55:32.364Z,97432
2018-09-01T07:56:48.370Z,97434
2018-09-01T07:58:04.348Z,97431
2018-09-01T07:59:20.447Z,97436
2018-09-01T08:00:36.487Z,97438
2018-09-01T08:01:52.587Z,97439
2018-09-01T08:03:08.518Z,97439
2018-09-01T08:04:24.509Z,97442
2018-09-01T08:05:40.586Z,97442
2018-09-01T08:06:56.571Z,97440
2018-09-01T08:08:12.507Z,97446
2018-09-01T08:09:28.645Z,97447
2018-09-01T08:10:44.601Z,97448
2018-09-01T08:12:00.610Z,97451
2018-09-01T08:13:16.578Z,97449
2018-09-01T08:14:32.751Z,97450
2018-09-01T08:15:48.643Z,97450
2018-09-01T08:17:04.918Z,97450
2018-09-01T08:18:21.003Z,97456
2018-09-01T08:19:37.023Z,97456
2018-09-01T08:20:52.989Z,97456
2018-09-01T08:22:09.061Z,97455
2018-09-01T08:23:25.116Z,97464
2018-09-01T08:24:41.159Z,97463
2018-09-01T08:25:57.242Z,97465
2018-09-01T08:27:13.202Z,97458
2018-09-01T08:28:29.200Z,97463
2018-09-01T08:29:45.371Z,97460
2018-09-01T08:31:01.426Z,97459
2018-09-01T08:32:17.462Z,97457
2018-09-01T08:33:33.703Z,97458
2018-09-01T08:34:49.621Z,97458
2018-09-01T08:36:05.688Z,97455
2018-09-01T08:37:21.682Z,97461
2018-09-01T08:38:37.678Z,97466
2018-09-01T08:39:53.681Z,97468
2018-09-01T08:41:09.808Z,97464
2018-09-01T08:42:25.751Z,97468
2018-09-01T08:43:41.820Z,97472
2018-09-01T08:44:57.787Z,97477
2018-09-01T08:46:13.860Z,97479
2018-09-01T08:47:29.862Z,97482
2018-09-01T08:50:26.774Z,97478
2018-09-01T08:51:42.903Z,97478
2018-09-01T08:52:58.910Z,97481
2018-09-01T08:54:14.884Z,97483
2018-09-01T08:55:30.818Z,97488
2018-09-01T08:56:46.883Z,97487
2018-09-01T08:58:02.971Z,97490
2018-09-01T08:59:19.037Z,97486
2018-09-01T09:00:34.992Z,97491
2018-09-01T09:01:51.038Z,97490
2018-09-01T09:03:06.951Z,97497
2018-09-01T09:04:22.874Z,97498
2018-09-01T09:05:38.841Z,97495
2018-09-01T09:06:54.871Z,97496
2018-09-01T09:08:10.976Z,97504
2018-09-01T09:09:27.098Z,97503
2018-09-01T09:10:43.076Z,97505
2018-09-01T09:11:59.039Z,97503
2018-09-01T09:13:14.964Z,97499
2018-09-01T09:14:31.010Z,97500
2018-09-01T09:17:27.877Z,97508
2018-09-01T09:18:43.942Z,97506
2018-09-01T09:19:59.786Z,97505
2018-09-01T09:21:16.674Z,97504
2018-09-01T09:22:33.409Z,97506
2018-09-01T09:23:49.415Z,97511
2018-09-01T09:25:08.460Z,97512
2018-09-01T09:26:25.403Z,97512
2018-09-01T09:27:41.336Z,97513
2018-09-01T09:28:57.377Z,97508
2018-09-01T09:30:13.445Z,97510
2018-09-01T09:31:31.440Z,97510
2018-09-01T09:32:47.406Z,97514
2018-09-01T09:34:03.345Z,97508
2018-09-01T09:35:19.335Z,97511
2018-09-01T09:36:35.456Z,97511
2018-09-01T09:37:51.427Z,97515
2018-09-01T09:39:07.343Z,97516
2018-09-01T09:40:23.360Z,97515
2018-09-01T09:41:39.409Z,97515
2018-09-01T09:42:55.451Z,97515
2018-09-01T09:44:11.390Z,97513
2018-09-01T09:45:27.359Z,97513
2018-09-01T09:46:43.414Z,97519
2018-09-01T09:47:59.418Z,97518
2018-09-01T09:49:15.388Z,97517
2018-09-01T09:50:31.429Z,97518
2018-09-01T09:51:47.513Z,97516
2018-09-01T09:53:03.796Z,97521
2018-09-01T09:57:16.598Z,97525
2018-09-01T09:58:32.593Z,97525
2018-09-01T09:59:48.517Z,97524
2018-09-01T10:01:04.584Z,97524
2018-09-01T10:02:20.548Z,97526
2018-09-01T10:03:36.490Z,97529
2018-09-01T10:04:52.506Z,97531
2018-09-01T10:06:08.484Z,97527
2018-09-01T10:07:24.576Z,97529
2018-09-01T10:08:40.529Z,97530
2018-09-01T10:09:56.503Z,97527
2018-09-01T10:11:12.701Z,97527
2018-09-01T10:12:28.643Z,97523
2018-09-01T10:13:44.575Z,97526
2018-09-01T10:15:00.572Z,97525
2018-09-01T10:16:16.529Z,97523
2018-09-01T10:17:32.545Z,97528
2018-09-01T10:18:48.646Z,97523
2018-09-01T10:20:04.654Z,97525
2018-09-01T10:21:20.548Z,97528
2018-09-01T10:22:36.580Z,97526
2018-09-01T10:23:52.566Z,97527
2018-09-01T10:25:08.554Z,97523
2018-09-01T10:26:24.657Z,97528
2018-09-01T10:27:40.748Z,97527
2018-09-01T10:28:56.818Z,97525
2018-09-01T10:30:12.904Z,97526
2018-09-01T10:31:29.005Z,97523
2018-09-01T10:32:45.074Z,97527
2018-09-01T10:35:41.861Z,97527
2018-09-01T10:36:57.879Z,97527
2018-09-01T10:38:13.974Z,97530
2018-09-01T10:39:29.911Z,97529
2018-09-01T10:40:46.051Z,97531
2018-09-01T10:42:02.151Z,97530
2018-09-01T10:43:18.266Z,97528
2018-09-01T10:44:34.423Z,97533
2018-09-01T10:45:50.408Z,97537
2018-09-01T10:47:06.338Z,97541
2018-09-01T10:48:22.421Z,97537
2018-09-01T10:49:38.449Z,97539
2018-09-01T10:50:54.731Z,97539
2018-09-01T10:52:10.826Z,97541
2018-09-01T10:53:26.790Z,97539
2018-09-01T10:54:42.756Z,97537
2018-09-01T10:55:58.851Z,97536
2018-09-01T10:57:14.768Z,97539
2018-09-01T10:58:30.699Z,97538
2018-09-01T10:59:46.708Z,97536
2018-09-01T11:01:02.673Z,97532
2018-09-01T11:02:18.702Z,97529
2018-09-01T11:03:34.696Z,97528
2018-09-01T11:04:50.656Z,97527
2018-09-01T11:06:06.697Z,97528
2018-09-01T11:07:22.657Z,97531
2018-09-01T11:08:38.606Z,97531
2018-09-01T11:09:54.559Z,97533
2018-09-01T11:11:10.540Z,97537
2018-09-01T11:12:26.676Z,97536
2018-09-01T11:13:43.633Z,97539
2018-09-01T11:14:59.630Z,97548
2018-09-01T11:16:15.615Z,97547
2018-09-01T11:17:31.788Z,97547
2018-09-01T11:18:47.733Z,97549
2018-09-01T11:20:03.683Z,97548
2018-09-01T11:21:19.683Z,97544
2018-09-01T11:22:35.587Z,97548
2018-09-01T11:23:51.551Z,97548
2018-09-01T11:25:07.698Z,97549
2018-09-01T11:26:23.735Z,97549
2018-09-01T11:27:39.839Z,97547
2018-09-01T11:28:55.753Z,97546
2018-09-01T11:30:11.713Z,97548
2018-09-01T11:31:27.724Z,97548
2018-09-01T11:32:43.684Z,97549
2018-09-01T11:33:59.766Z,97550
2018-09-01T11:35:15.833Z,97546
2018-09-01T11:36:31.918Z,97545
2018-09-01T11:37:47.863Z,97545
2018-09-01T11:39:04.147Z,97547
2018-09-01T11:40:20.276Z,97547
2018-09-01T11:41:36.436Z,97551
2018-09-01T11:42:52.572Z,97547
2018-09-01T11:44:08.428Z,97548
2018-09-01T11:45:24.375Z,97552
2018-09-01T11:46:40.431Z,97553
2018-09-01T11:47:56.467Z,97554
2018-09-01T11:49:12.428Z,97555
2018-09-01T11:50:28.426Z,97558
2018-09-01T11:51:44.538Z,97562
2018-09-01T11:53:00.782Z,97560
2018-09-01T11:54:16.762Z,97565
2018-09-01T11:55:32.724Z,97555
2018-09-01T11:56:48.796Z,97561
2018-09-01T11:58:04.817Z,97562
2018-09-01T11:59:20.909Z,97556
2018-09-01T12:00:37.027Z,97561
2018-09-01T12:01:53.126Z,97557
2018-09-01T12:03:09.144Z,97556
2018-09-01T12:04:25.199Z,97560
2018-09-01T12:05:41.260Z,97559
2018-09-01T12:06:57.320Z,97559
2018-09-01T12:08:13.385Z,97556
2018-09-01T12:09:29.397Z,97562
2018-09-01T12:10:45.508Z,97558
2018-09-01T12:12:01.663Z,97561
2018-09-01T12:13:17.587Z,97556
2018-09-01T12:14:33.927Z,97559
2018-09-01T12:15:49.944Z,97555
2018-09-01T12:17:05.917Z,97557
2018-09-01T12:18:21.950Z,97562
2018-09-01T12:19:37.932Z,97563
2018-09-01T12:20:54.038Z,97560
2018-09-01T12:23:50.834Z,97568
2018-09-01T12:25:06.779Z,97574
2018-09-01T12:26:22.790Z,97572
2018-09-01T12:27:38.779Z,97574
2018-09-01T12:28:54.828Z,97574
2018-09-01T12:30:10.944Z,97577
2018-09-01T12:31:27.145Z,97578
2018-09-01T12:32:43.094Z,97577
2018-09-01T12:33:59.032Z,97583
2018-09-01T12:35:15.104Z,97583
2018-09-01T12:36:31.122Z,97587
2018-09-01T12:37:47.116Z,97585
2018-09-01T12:39:03.070Z,97580
2018-09-01T12:40:19.023Z,97577
2018-09-01T12:41:35.073Z,97579
2018-09-01T12:42:51.028Z,97577
2018-09-01T12:44:07.067Z,97580
2018-09-01T12:45:22.962Z,97577
2018-09-01T12:46:39.134Z,97576
2018-09-01T12:47:55.230Z,97577
2018-09-01T12:49:11.262Z,97578
2018-09-01T12:50:27.360Z,97579
2018-09-01T12:51:43.402Z,97577
2018-09-01T12:52:59.373Z,97583
2018-09-01T12:54:15.361Z,97581
2018-09-01T12:55:31.332Z,97579
2018-09-01T12:56:47.329Z,97584
2018-09-01T12:58:03.524Z,97583
2018-09-01T12:59:19.488Z,97578
2018-09-01T13:00:35.468Z,97577
2018-09-01T13:01:51.414Z,97572
2018-09-01T13:03:07.434Z,97571
2018-09-01T13:04:23.465Z,97572
2018-09-01T13:05:39.478Z,97572
2018-09-01T13:06:55.552Z,97577
2018-09-01T13:08:11.619Z,97578
2018-09-01T13:09:27.732Z,97578
2018-09-01T13:10:43.782Z,97583
2018-09-01T13:11:59.805Z,97579
2018-09-01T13:13:15.917Z,97583
2018-09-01T13:14:32.023Z,97581
2018-09-01T13:15:48.102Z,97584
2018-09-01T13:17:04.097Z,97585
2018-09-01T13:18:20.119Z,97585
2018-09-01T13:19:36.235Z,97581
2018-09-01T13:20:52.239Z,97586
2018-09-01T13:22:08.202Z,97589
2018-09-01T13:23:24.132Z,97590
2018-09-01T13:24:40.268Z,97593
2018-09-01T13:25:56.440Z,97592
2018-09-01T13:27:12.453Z,97590
2018-09-01T13:28:28.556Z,97593
2018-09-01T13:29:44.530Z,97590
2018-09-01T13:31:00.566Z,97585
2018-09-01T13:32:16.554Z,97582
2018-09-01T13:33:32.478Z,97580
2018-09-01T13:34:48.550Z,97576
2018-09-01T13:36:04.578Z,97576
2018-09-01T13:37:20.728Z,97578
2018-09-01T13:38:36.667Z,97576
2018-09-01T13:39:52.625Z,97576
2018-09-01T13:41:08.564Z,97576
2018-09-01T13:42:24.618Z,97574
2018-09-01T13:43:40.689Z,97574
2018-09-01T13:44:56.714Z,97573
2018-09-01T13:47:54.242Z,97577
2018-09-01T13:49:10.311Z,97577
2018-09-01T13:50:26.336Z,97575
2018-09-01T13:51:42.382Z,97581
2018-09-01T13:52:58.392Z,97582
2018-09-01T13:54:14.361Z,97576
2018-09-01T13:55:30.410Z,97581
2018-09-01T13:56:46.391Z,97581
2018-09-01T13:58:02.363Z,97577
2018-09-01T13:59:18.367Z,97581
2018-09-01T14:00:34.394Z,97583
2018-09-01T14:01:50.446Z,97587
2018-09-01T14:03:06.442Z,97585
2018-09-01T14:04:22.548Z,97589
2018-09-01T14:05:38.550Z,97594
2018-09-01T14:06:54.623Z,97596
2018-09-01T14:08:10.737Z,97598
2018-09-01T14:09:26.706Z,97600
2018-09-01T14:10:42.710Z,97600
2018-09-01T14:11:58.699Z,97598
2018-09-01T14:13:14.788Z,97601
2018-09-01T14:14:31.023Z,97600
2018-09-01T14:15:46.917Z,97597
2018-09-01T14:17:03.048Z,97592
2018-09-01T14:18:19.091Z,97590
2018-09-01T14:19:35.000Z,97588
2018-09-01T14:20:51.014Z,97590
2018-09-01T14:22:07.001Z,97587
2018-09-01T14:23:23.084Z,97587
2018-09-01T14:24:39.073Z,97590
2018-09-01T14:25:55.176Z,97590
2018-09-01T14:27:11.149Z,97592
2018-09-01T14:28:27.198Z,97594
2018-09-01T14:29:43.250Z,97596
2018-09-01T14:30:59.188Z,97595
2018-09-01T14:32:15.149Z,97597
2018-09-01T14:33:31.162Z,97597
2018-09-01T14:34:47.280Z,97599
2018-09-01T14:36:04.077Z,97596
2018-09-01T14:37:19.216Z,97602
2018-09-01T14:38:35.151Z,97603
2018-09-01T14:39:51.204Z,97602
2018-09-01T14:41:07.300Z,97604
2018-09-01T14:42:23.392Z,97602
2018-09-01T14:43:39.450Z,97600
2018-09-01T14:46:36.182Z,97604
2018-09-01T14:47:52.205Z,97600
2018-09-01T14:49:08.352Z,97602
2018-09-01T14:50:24.349Z,97598
2018-09-01T14:51:40.581Z,97599
2018-09-01T14:52:56.713Z,97601
2018-09-01T14:54:12.957Z,97603
2018-09-01T14:55:29.084Z,97603
2018-09-01T14:56:45.064Z,97601
2018-09-01T14:58:01.529Z,97597
2018-09-01T14:59:17.589Z,97597
2018-09-01T15:00:33.544Z,97605
2018-09-01T15:01:49.603Z,97603
2018-09-01T15:03:05.769Z,97607
2018-09-01T15:04:21.902Z,97608
2018-09-01T15:05:37.867Z,97606
2018-09-01T15:06:53.921Z,97607
2018-09-01T15:08:09.901Z,97604
2018-09-01T15:09:25.881Z,97607
2018-09-01T15:10:41.951Z,97607
2018-09-01T15:11:57.989Z,97605
2018-09-01T15:13:14.284Z,97610
2018-09-01T15:14:30.710Z,97609
2018-09-01T15:15:46.663Z,97613
2018-09-01T15:17:02.730Z,97614
2018-09-01T15:18:18.818Z,97612
2018-09-01T15:19:35.492Z,97613
2018-09-01T15:20:51.580Z,97609
2018-09-01T15:22:07.659Z,97612
2018-09-01T15:23:23.879Z,97613
2018-09-01T15:24:39.922Z,97615
2018-09-01T15:25:55.913Z,97613
2018-09-01T15:27:11.982Z,97613
2018-09-01T15:28:27.986Z,97614
2018-09-01T15:29:44.068Z,97611
2018-09-01T15:31:00.217Z,97615
2018-09-01T15:32:16.267Z,97612
2018-09-01T15:33:32.257Z,97613
2018-09-01T15:34:48.306Z,97612
2018-09-01T15:36:04.280Z,97613
2018-09-01T15:37:20.270Z,97615
2018-09-01T15:38:37.383Z,97615
2018-09-01T15:39:53.352Z,97619
2018-09-01T15:41:09.336Z,97612
2018-09-01T15:42:25.386Z,97616
2018-09-01T15:43:41.476Z,97619
2018-09-01T15:44:57.457Z,97618
2018-09-01T15:46:13.460Z,97621
2018-09-01T15:47:29.534Z,97622
2018-09-01T15:48:45.528Z,97622
2018-09-01T15:50:02.583Z,97622
2018-09-01T15:51:18.605Z,97626
2018-09-01T15:52:34.589Z,97622
2018-09-01T15:53:50.697Z,97628
2018-09-01T15:55:06.884Z,97624
2018-09-01T15:56:22.855Z,97631
2018-09-01T15:57:38.925Z,97631
2018-09-01T15:58:54.947Z,97634
2018-09-01T16:00:11.113Z,97633
2018-09-01T16:01:27.172Z,97631
2018-09-01T16:02:43.374Z,97636
2018-09-01T16:03:59.422Z,97635
2018-09-01T16:05:15.461Z,97633
2018-09-01T16:06:31.415Z,97628
2018-09-01T16:07:47.512Z,97631
2018-09-01T16:09:03.490Z,97632
2018-09-01T16:10:19.501Z,97635
2018-09-01T16:11:35.446Z,97635
2018-09-01T16:12:51.537Z,97637
2018-09-01T16:14:07.551Z,97635
2018-09-01T16:15:23.538Z,97629
2018-09-01T16:16:39.559Z,97631
2018-09-01T16:17:55.579Z,97631
2018-09-01T16:19:11.566Z,97625
2018-09-01T16:20:27.706Z,97626
2018-09-01T16:21:43.764Z,97623
2018-09-01T16:22:59.781Z,97627
2018-09-01T16:24:15.832Z,97630
2018-09-01T16:25:31.814Z,97630
2018-09-01T16:26:47.914Z,97628
2018-09-01T16:28:04.026Z,97630
2018-09-01T16:29:19.990Z,97627
2018-09-01T16:30:35.952Z,97632
2018-09-01T16:31:51.920Z,97630
2018-09-01T16:33:07.961Z,97628
2018-09-01T16:34:23.938Z,97624
2018-09-01T16:35:39.837Z,97627
2018-09-01T16:38:36.678Z,97625
2018-09-01T16:39:52.693Z,97627
2018-09-01T16:41:08.687Z,97628
2018-09-01T16:42:24.682Z,97628
2018-09-01T16:43:40.596Z,97627
2018-09-01T16:44:56.751Z,97628
2018-09-01T16:46:12.900Z,97629
2018-09-01T16:47:29.075Z,97632
2018-09-01T16:48:45.004Z,97630
2018-09-01T16:50:00.981Z,97633
2018-09-01T16:51:17.002Z,97634
2018-09-01T16:54:13.889Z,97632
2018-09-01T16:55:29.936Z,97632